sensor_id;sensor_type;location;lat;lon;timestamp;pressure;altitude;pressure_sealevel;temperature;humidity
21096;BME280;10706;49.036;12.112;2022-07-22T00:01:34;98093.28;;;18.32;85.42
21096;BME280;10706;49.036;12.112;2022-07-22T00:04:00;98097.06;;;18.36;85.81
21096;BME280;10706;49.036;12.112;2022-07-22T00:06:27;98098.13;;;18.35;85.40
21096;BME280;10706;49.036;12.112;2022-07-22T00:08:53;98090.03;;;18.35;85.69
21096;BME280;10706;49.036;12.112;2022-07-22T00:11:19;98093.56;;;18.30;85.72
21096;BME280;10706;49.036;12.112;2022-07-22T00:13:44;98090.09;;;18.24;85.64
21096;BME280;10706;49.036;12.112;2022-07-22T00:16:11;98091.41;;;18.22;85.47
21096;BME280;10706;49.036;12.112;2022-07-22T00:18:37;98089.50;;;18.27;85.81
21096;BME280;10706;49.036;12.112;2022-07-22T00:21:03;98092.22;;;18.22;86.24
21096;BME280;10706;49.036;12.112;2022-07-22T00:23:29;98087.91;;;18.21;86.23
21096;BME280;10706;49.036;12.112;2022-07-22T00:25:55;98088.19;;;18.20;86.52
21096;BME280;10706;49.036;12.112;2022-07-22T00:28:21;98085.50;;;18.15;86.28
21096;BME280;10706;49.036;12.112;2022-07-22T00:30:47;98087.41;;;18.14;86.27
21096;BME280;10706;49.036;12.112;2022-07-22T00:33:13;98078.50;;;18.14;86.44
21096;BME280;10706;49.036;12.112;2022-07-22T00:35:39;98080.09;;;18.15;86.60
21096;BME280;10706;49.036;12.112;2022-07-22T00:38:04;98074.69;;;18.15;86.18
21096;BME280;10706;49.036;12.112;2022-07-22T00:40:30;98078.75;;;18.12;86.37
21096;BME280;10706;49.036;12.112;2022-07-22T00:42:56;98084.97;;;18.13;86.54
21096;BME280;10706;49.036;12.112;2022-07-22T00:45:22;98079.81;;;18.16;85.88
21096;BME280;10706;49.036;12.112;2022-07-22T00:47:47;98083.91;;;18.14;86.35
21096;BME280;10706;49.036;12.112;2022-07-22T00:50:13;98080.94;;;18.15;86.08
21096;BME280;10706;49.036;12.112;2022-07-22T00:52:41;98080.09;;;18.15;86.48
21096;BME280;10706;49.036;12.112;2022-07-22T00:55:07;98073.63;;;18.11;86.24
21096;BME280;10706;49.036;12.112;2022-07-22T00:57:33;98071.50;;;18.08;86.46
21096;BME280;10706;49.036;12.112;2022-07-22T00:59:59;98078.25;;;18.05;86.64
21096;BME280;10706;49.036;12.112;2022-07-22T01:02:25;98073.41;;;18.02;86.65
21096;BME280;10706;49.036;12.112;2022-07-22T01:04:51;98074.47;;;18.01;86.50
21096;BME280;10706;49.036;12.112;2022-07-22T01:07:17;98075.53;;;18.00;87.46
21096;BME280;10706;49.036;12.112;2022-07-22T01:09:45;98065.84;;;18.04;86.96
21096;BME280;10706;49.036;12.112;2022-07-22T01:12:12;98067.44;;;18.05;87.13
21096;BME280;10706;49.036;12.112;2022-07-22T01:14:38;98070.66;;;18.07;87.19
21096;BME280;10706;49.036;12.112;2022-07-22T01:17:04;98068.78;;;18.08;87.28
21096;BME280;10706;49.036;12.112;2022-07-22T01:19:30;98068.53;;;17.99;87.03
21096;BME280;10706;49.036;12.112;2022-07-22T01:21:56;98065.59;;;17.90;87.67
21096;BME280;10706;49.036;12.112;2022-07-22T01:24:22;98067.50;;;17.84;87.58
21096;BME280;10706;49.036;12.112;2022-07-22T01:26:48;98071.78;;;17.80;87.98
21096;BME280;10706;49.036;12.112;2022-07-22T01:29:14;98069.09;;;17.75;88.05
21096;BME280;10706;49.036;12.112;2022-07-22T01:31:40;98058.88;;;17.72;87.77
21096;BME280;10706;49.036;12.112;2022-07-22T01:34:06;98063.47;;;17.66;88.14
21096;BME280;10706;49.036;12.112;2022-07-22T01:36:32;98066.44;;;17.60;88.56
21096;BME280;10706;49.036;12.112;2022-07-22T01:38:58;98062.66;;;17.61;88.13
21096;BME280;10706;49.036;12.112;2022-07-22T01:41:24;98062.13;;;17.54;88.59
21096;BME280;10706;49.036;12.112;2022-07-22T01:43:49;98064.84;;;17.54;88.94
21096;BME280;10706;49.036;12.112;2022-07-22T01:46:15;98060.50;;;17.53;89.00
21096;BME280;10706;49.036;12.112;2022-07-22T01:48:42;98064.31;;;17.52;88.77
21096;BME280;10706;49.036;12.112;2022-07-22T01:51:08;98064.31;;;17.46;88.83
21096;BME280;10706;49.036;12.112;2022-07-22T01:53:34;98060.53;;;17.42;89.03
21096;BME280;10706;49.036;12.112;2022-07-22T01:55:59;98060.00;;;17.40;89.17
21096;BME280;10706;49.036;12.112;2022-07-22T01:58:26;98058.91;;;17.41;89.18
21096;BME280;10706;49.036;12.112;2022-07-22T02:00:52;98064.56;;;17.45;89.05
21096;BME280;10706;49.036;12.112;2022-07-22T02:03:18;98060.53;;;17.42;88.78
21096;BME280;10706;49.036;12.112;2022-07-22T02:05:44;98059.69;;;17.47;88.77
21096;BME280;10706;49.036;12.112;2022-07-22T02:08:11;98055.13;;;17.37;89.15
21096;BME280;10706;49.036;12.112;2022-07-22T02:10:37;98054.59;;;17.30;89.29
21096;BME280;10706;49.036;12.112;2022-07-22T02:13:04;98054.06;;;17.28;89.69
21096;BME280;10706;49.036;12.112;2022-07-22T02:15:30;98053.25;;;17.27;89.55
21096;BME280;10706;49.036;12.112;2022-07-22T02:17:55;98047.06;;;17.27;89.64
21096;BME280;10706;49.036;12.112;2022-07-22T02:20:22;98054.63;;;17.25;89.78
21096;BME280;10706;49.036;12.112;2022-07-22T02:22:48;98057.31;;;17.25;89.87
21096;BME280;10706;49.036;12.112;2022-07-22T02:25:14;98047.59;;;17.24;89.78
21096;BME280;10706;49.036;12.112;2022-07-22T02:27:41;98055.66;;;17.19;89.91
21096;BME280;10706;49.036;12.112;2022-07-22T02:30:08;98051.38;;;17.18;90.05
21096;BME280;10706;49.036;12.112;2022-07-22T02:32:35;98051.38;;;17.18;89.74
21096;BME280;10706;49.036;12.112;2022-07-22T02:35:01;98062.16;;;17.13;90.14
21096;BME280;10706;49.036;12.112;2022-07-22T02:37:26;98057.84;;;17.06;90.10
21096;BME280;10706;49.036;12.112;2022-07-22T02:39:52;98059.19;;;17.04;90.43
21096;BME280;10706;49.036;12.112;2022-07-22T02:42:18;98059.72;;;17.11;90.16
21096;BME280;10706;49.036;12.112;2022-07-22T02:44:44;98065.38;;;17.09;90.25
21096;BME280;10706;49.036;12.112;2022-07-22T02:47:10;98060.53;;;17.06;89.84
21096;BME280;10706;49.036;12.112;2022-07-22T02:49:36;98057.81;;;16.96;90.61
21096;BME280;10706;49.036;12.112;2022-07-22T02:52:02;98052.16;;;16.93;90.74
21096;BME280;10706;49.036;12.112;2022-07-22T02:54:28;98056.47;;;16.88;90.50
21096;BME280;10706;49.036;12.112;2022-07-22T02:56:54;98055.13;;;16.86;90.66
21096;BME280;10706;49.036;12.112;2022-07-22T02:59:20;98055.13;;;16.86;91.09
21096;BME280;10706;49.036;12.112;2022-07-22T03:01:45;98056.47;;;16.83;90.99
21096;BME280;10706;49.036;12.112;2022-07-22T03:04:11;98066.44;;;16.83;91.00
21096;BME280;10706;49.036;12.112;2022-07-22T03:06:37;98069.13;;;16.83;91.57
21096;BME280;10706;49.036;12.112;2022-07-22T03:09:03;98059.41;;;16.82;91.34
21096;BME280;10706;49.036;12.112;2022-07-22T03:11:30;98060.47;;;16.81;91.54
21096;BME280;10706;49.036;12.112;2022-07-22T03:13:55;98058.03;;;16.79;91.30
21096;BME280;10706;49.036;12.112;2022-07-22T03:16:21;98062.91;;;16.77;91.61
21096;BME280;10706;49.036;12.112;2022-07-22T03:18:47;98058.31;;;16.73;91.06
21096;BME280;10706;49.036;12.112;2022-07-22T03:21:12;98058.84;;;16.69;91.12
21096;BME280;10706;49.036;12.112;2022-07-22T03:23:38;98052.38;;;16.65;91.28
21096;BME280;10706;49.036;12.112;2022-07-22T03:26:04;98056.13;;;16.64;91.06
21096;BME280;10706;49.036;12.112;2022-07-22T03:28:30;98058.53;;;16.61;91.39
21096;BME280;10706;49.036;12.112;2022-07-22T03:30:56;98058.84;;;16.59;91.32
21096;BME280;10706;49.036;12.112;2022-07-22T03:33:22;98064.75;;;16.56;91.72
21096;BME280;10706;49.036;12.112;2022-07-22T03:35:47;98072.28;;;16.54;91.58
21096;BME280;10706;49.036;12.112;2022-07-22T03:38:13;98074.44;;;16.52;91.69
21096;BME280;10706;49.036;12.112;2022-07-22T03:40:39;98071.22;;;16.50;91.63
21096;BME280;10706;49.036;12.112;2022-07-22T03:43:05;98069.84;;;16.52;91.93
21096;BME280;10706;49.036;12.112;2022-07-22T03:45:31;98060.97;;;16.52;92.03
21096;BME280;10706;49.036;12.112;2022-07-22T03:47:57;98065.28;;;16.53;91.99
21096;BME280;10706;49.036;12.112;2022-07-22T03:50:26;98065.28;;;16.53;91.72
21096;BME280;10706;49.036;12.112;2022-07-22T03:52:51;98069.59;;;16.54;91.99
21096;BME280;10706;49.036;12.112;2022-07-22T03:55:17;98069.06;;;16.52;92.12
21096;BME280;10706;49.036;12.112;2022-07-22T03:57:43;98060.97;;;16.52;91.94
21096;BME280;10706;49.036;12.112;2022-07-22T04:00:09;98068.50;;;16.55;91.64
21096;BME280;10706;49.036;12.112;2022-07-22T04:02:35;98066.34;;;16.57;91.78
21096;BME280;10706;49.036;12.112;2022-07-22T04:05:01;98070.97;;;16.67;91.06
21096;BME280;10706;49.036;12.112;2022-07-22T04:07:26;98061.78;;;16.63;91.29
21096;BME280;10706;49.036;12.112;2022-07-22T04:09:52;98061.25;;;16.61;91.46
21096;BME280;10706;49.036;12.112;2022-07-22T04:12:37;98056.91;;;16.55;91.11
21096;BME280;10706;49.036;12.112;2022-07-22T04:15:05;98064.22;;;16.54;91.29
21096;BME280;10706;49.036;12.112;2022-07-22T04:17:31;98065.00;;;16.55;91.92
21096;BME280;10706;49.036;12.112;2022-07-22T04:19:57;98059.34;;;16.56;91.94
21096;BME280;10706;49.036;12.112;2022-07-22T04:22:24;98063.69;;;16.62;92.25
21096;BME280;10706;49.036;12.112;2022-07-22T04:24:50;98059.38;;;16.66;92.25
21096;BME280;10706;49.036;12.112;2022-07-22T04:27:16;98069.09;;;16.73;92.21
21096;BME280;10706;49.036;12.112;2022-07-22T04:29:42;98061.00;;;16.78;92.26
21096;BME280;10706;49.036;12.112;2022-07-22T04:32:07;98065.91;;;16.86;92.11
21096;BME280;10706;49.036;12.112;2022-07-22T04:34:33;98062.41;;;16.90;92.49
21096;BME280;10706;49.036;12.112;2022-07-22T04:36:59;98055.66;;;16.98;92.56
21096;BME280;10706;49.036;12.112;2022-07-22T04:39:25;98058.91;;;17.00;92.22
21096;BME280;10706;49.036;12.112;2022-07-22T04:41:50;98059.19;;;17.09;92.43
21096;BME280;10706;49.036;12.112;2022-07-22T04:44:16;98065.94;;;17.17;91.99
21096;BME280;10706;49.036;12.112;2022-07-22T04:46:42;98064.31;;;17.21;92.44
21096;BME280;10706;49.036;12.112;2022-07-22T04:49:07;98066.22;;;17.31;91.58
21096;BME280;10706;49.036;12.112;2022-07-22T04:51:33;98062.69;;;17.40;90.96
21096;BME280;10706;49.036;12.112;2022-07-22T04:53:59;98065.38;;;17.56;90.45
21096;BME280;10706;49.036;12.112;2022-07-22T04:56:25;98062.41;;;17.57;90.67
21096;BME280;10706;49.036;12.112;2022-07-22T04:58:50;98064.53;;;17.65;90.19
21096;BME280;10706;49.036;12.112;2022-07-22T05:01:17;98069.66;;;17.72;89.87
21096;BME280;10706;49.036;12.112;2022-07-22T05:03:43;98068.03;;;17.81;89.79
21096;BME280;10706;49.036;12.112;2022-07-22T05:06:08;98062.03;;;18.00;88.71
21096;BME280;10706;49.036;12.112;2022-07-22T05:08:34;98069.63;;;17.98;88.28
21096;BME280;10706;49.036;12.112;2022-07-22T05:11:01;98064.19;;;18.08;88.70
21096;BME280;10706;49.036;12.112;2022-07-22T05:13:27;98060.38;;;18.19;88.29
21096;BME280;10706;49.036;12.112;2022-07-22T05:15:53;98063.06;;;18.24;87.51
21096;BME280;10706;49.036;12.112;2022-07-22T05:18:18;98063.00;;;18.30;87.34
21096;BME280;10706;49.036;12.112;2022-07-22T05:20:44;98061.34;;;18.34;87.85
21096;BME280;10706;49.036;12.112;2022-07-22T05:23:10;98056.78;;;18.34;86.61
21096;BME280;10706;49.036;12.112;2022-07-22T05:25:36;98063.22;;;18.43;86.88
21096;BME280;10706;49.036;12.112;2022-07-22T05:28:02;98070.19;;;18.55;86.00
21096;BME280;10706;49.036;12.112;2022-07-22T05:30:28;98069.34;;;18.64;85.78
21096;BME280;10706;49.036;12.112;2022-07-22T05:32:53;98072.25;;;18.73;85.57
21096;BME280;10706;49.036;12.112;2022-07-22T05:35:20;98068.44;;;18.79;84.01
21096;BME280;10706;49.036;12.112;2022-07-22T05:37:46;98062.94;;;18.95;83.52
21096;BME280;10706;49.036;12.112;2022-07-22T05:40:12;98063.75;;;18.95;83.70
21096;BME280;10706;49.036;12.112;2022-07-22T05:42:38;98065.63;;;19.00;83.42
21096;BME280;10706;49.036;12.112;2022-07-22T05:45:04;98059.31;;;19.10;83.66
21096;BME280;10706;49.036;12.112;2022-07-22T05:47:31;98068.41;;;19.24;82.71
21096;BME280;10706;49.036;12.112;2022-07-22T05:49:56;98062.06;;;19.39;82.81
21096;BME280;10706;49.036;12.112;2022-07-22T05:52:22;98066.88;;;19.42;82.59
21096;BME280;10706;49.036;12.112;2022-07-22T05:54:48;98061.09;;;19.54;82.48
21096;BME280;10706;49.036;12.112;2022-07-22T05:57:14;98065.91;;;19.62;81.58
21096;BME280;10706;49.036;12.112;2022-07-22T05:59:40;98066.50;;;19.54;80.87
21096;BME280;10706;49.036;12.112;2022-07-22T06:02:07;98057.63;;;19.77;81.13
21096;BME280;10706;49.036;12.112;2022-07-22T06:04:33;98064.75;;;19.68;80.45
21096;BME280;10706;49.036;12.112;2022-07-22T06:06:59;98065.38;;;19.60;80.45
21096;BME280;10706;49.036;12.112;2022-07-22T06:09:25;98069.09;;;19.69;80.90
21096;BME280;10706;49.036;12.112;2022-07-22T06:11:51;98067.69;;;19.77;80.84
21096;BME280;10706;49.036;12.112;2022-07-22T06:14:16;98067.41;;;19.78;79.94
21096;BME280;10706;49.036;12.112;2022-07-22T06:16:42;98069.88;;;19.70;80.29
21096;BME280;10706;49.036;12.112;2022-07-22T06:19:08;98062.03;;;19.73;80.48
21096;BME280;10706;49.036;12.112;2022-07-22T06:21:34;98071.94;;;19.83;80.11
21096;BME280;10706;49.036;12.112;2022-07-22T06:24:00;98067.78;;;19.91;80.09
21096;BME280;10706;49.036;12.112;2022-07-22T06:26:26;98071.38;;;20.10;79.72
21096;BME280;10706;49.036;12.112;2022-07-22T06:28:54;98071.28;;;20.39;80.20
21096;BME280;10706;49.036;12.112;2022-07-22T06:31:20;98073.69;;;20.65;78.86
21096;BME280;10706;49.036;12.112;2022-07-22T06:33:46;98068.63;;;20.77;78.03
21096;BME280;10706;49.036;12.112;2022-07-22T06:36:12;98068.84;;;20.62;77.05
21096;BME280;10706;49.036;12.112;2022-07-22T06:38:40;98082.25;;;20.53;78.78
21096;BME280;10706;49.036;12.112;2022-07-22T06:41:05;98081.78;;;20.46;78.40
21096;BME280;10706;49.036;12.112;2022-07-22T06:43:31;98080.75;;;20.42;78.79
21096;BME280;10706;49.036;12.112;2022-07-22T06:45:57;98074.38;;;20.52;78.99
21096;BME280;10706;49.036;12.112;2022-07-22T06:48:23;98075.47;;;20.51;78.51
21096;BME280;10706;49.036;12.112;2022-07-22T06:50:49;98076.19;;;20.62;78.14
21096;BME280;10706;49.036;12.112;2022-07-22T06:53:14;98075.44;;;20.75;78.56
21096;BME280;10706;49.036;12.112;2022-07-22T06:55:40;98068.94;;;20.95;78.28
21096;BME280;10706;49.036;12.112;2022-07-22T06:58:06;98080.81;;;20.80;77.63
21096;BME280;10706;49.036;12.112;2022-07-22T07:00:31;98067.47;;;20.84;77.95
21096;BME280;10706;49.036;12.112;2022-07-22T07:03:00;98070.38;;;21.06;77.77
21096;BME280;10706;49.036;12.112;2022-07-22T07:05:27;98073.81;;;21.12;76.72
21096;BME280;10706;49.036;12.112;2022-07-22T07:07:55;98072.44;;;21.28;76.38
21096;BME280;10706;49.036;12.112;2022-07-22T07:10:21;98074.94;;;21.44;76.15
21096;BME280;10706;49.036;12.112;2022-07-22T07:12:47;98071.34;;;21.62;76.71
21096;BME280;10706;49.036;12.112;2022-07-22T07:15:13;98073.41;;;21.70;76.21
21096;BME280;10706;49.036;12.112;2022-07-22T07:17:39;98068.47;;;21.86;75.42
21096;BME280;10706;49.036;12.112;2022-07-22T07:20:06;98064.97;;;21.86;73.98
21096;BME280;10706;49.036;12.112;2022-07-22T07:22:32;98074.03;;;21.81;74.60
21096;BME280;10706;49.036;12.112;2022-07-22T07:25:06;98068.38;;;21.91;75.54
21096;BME280;10706;49.036;12.112;2022-07-22T07:27:32;98059.63;;;22.08;74.62
21096;BME280;10706;49.036;12.112;2022-07-22T07:29:58;98061.13;;;22.01;73.29
21096;BME280;10706;49.036;12.112;2022-07-22T07:32:24;98061.34;;;22.18;74.08
21096;BME280;10706;49.036;12.112;2022-07-22T07:34:50;98059.22;;;22.15;72.78
21096;BME280;10706;49.036;12.112;2022-07-22T07:37:15;98057.31;;;22.29;73.77
21096;BME280;10706;49.036;12.112;2022-07-22T07:39:41;98062.75;;;22.43;74.23
21096;BME280;10706;49.036;12.112;2022-07-22T07:42:07;98057.28;;;22.57;72.60
21096;BME280;10706;49.036;12.112;2022-07-22T07:44:33;98055.59;;;22.47;71.83
21096;BME280;10706;49.036;12.112;2022-07-22T07:46:58;98060.59;;;22.68;71.85
21096;BME280;10706;49.036;12.112;2022-07-22T07:49:24;98051.38;;;22.78;71.92
21096;BME280;10706;49.036;12.112;2022-07-22T07:51:50;98048.97;;;22.99;72.05
21096;BME280;10706;49.036;12.112;2022-07-22T07:54:16;98050.94;;;23.21;70.67
21096;BME280;10706;49.036;12.112;2022-07-22T07:56:41;98044.53;;;23.25;69.89
21096;BME280;10706;49.036;12.112;2022-07-22T07:59:07;98044.97;;;23.41;69.44
21096;BME280;10706;49.036;12.112;2022-07-22T08:01:33;98045.28;;;23.40;68.43
21096;BME280;10706;49.036;12.112;2022-07-22T08:03:59;98044.69;;;23.52;68.12
21096;BME280;10706;49.036;12.112;2022-07-22T08:06:24;98040.13;;;23.38;66.95
21096;BME280;10706;49.036;12.112;2022-07-22T08:08:50;98030.63;;;23.27;66.93
21096;BME280;10706;49.036;12.112;2022-07-22T08:11:16;98033.78;;;23.43;68.30
21096;BME280;10706;49.036;12.112;2022-07-22T08:13:41;98034.50;;;23.66;68.01
21096;BME280;10706;49.036;12.112;2022-07-22T08:16:07;98041.69;;;23.84;66.83
21096;BME280;10706;49.036;12.112;2022-07-22T08:18:33;98024.63;;;24.10;65.58
21096;BME280;10706;49.036;12.112;2022-07-22T08:20:59;98027.84;;;24.30;64.64
21096;BME280;10706;49.036;12.112;2022-07-22T08:23:25;98033.00;;;24.31;63.69
21096;BME280;10706;49.036;12.112;2022-07-22T08:25:51;98027.22;;;24.33;61.95
21096;BME280;10706;49.036;12.112;2022-07-22T08:28:17;98029.63;;;24.34;62.63
21096;BME280;10706;49.036;12.112;2022-07-22T08:30:43;98024.31;;;24.20;58.67
21096;BME280;10706;49.036;12.112;2022-07-22T08:33:09;98027.94;;;23.98;61.20
21096;BME280;10706;49.036;12.112;2022-07-22T08:35:35;98028.97;;;24.29;62.05
21096;BME280;10706;49.036;12.112;2022-07-22T08:38:01;98020.66;;;24.42;60.84
21096;BME280;10706;49.036;12.112;2022-07-22T08:40:27;98018.25;;;24.50;56.19
21096;BME280;10706;49.036;12.112;2022-07-22T08:42:53;98014.13;;;24.78;57.48
21096;BME280;10706;49.036;12.112;2022-07-22T08:45:20;98015.38;;;25.07;53.17
21096;BME280;10706;49.036;12.112;2022-07-22T08:47:49;98017.47;;;25.28;54.55
21096;BME280;10706;49.036;12.112;2022-07-22T08:50:16;98012.31;;;25.17;55.89
21096;BME280;10706;49.036;12.112;2022-07-22T08:52:42;98007.31;;;25.28;56.69
21096;BME280;10706;49.036;12.112;2022-07-22T08:55:09;98011.97;;;25.36;52.73
21096;BME280;10706;49.036;12.112;2022-07-22T08:57:35;98011.09;;;25.62;50.17
21096;BME280;10706;49.036;12.112;2022-07-22T09:00:10;98004.50;;;25.54;49.77
21096;BME280;10706;49.036;12.112;2022-07-22T09:02:39;98001.97;;;25.49;50.73
21096;BME280;10706;49.036;12.112;2022-07-22T09:05:08;98003.13;;;25.22;49.38
21096;BME280;10706;49.036;12.112;2022-07-22T09:07:37;98004.25;;;25.38;51.59
21096;BME280;10706;49.036;12.112;2022-07-22T09:10:13;98003.63;;;25.71;51.44
21096;BME280;10706;49.036;12.112;2022-07-22T09:12:59;98008.28;;;25.79;49.70
21096;BME280;10706;49.036;12.112;2022-07-22T09:15:33;98008.31;;;25.71;49.24
21096;BME280;10706;49.036;12.112;2022-07-22T09:18:02;98007.88;;;25.60;50.24
21096;BME280;10706;49.036;12.112;2022-07-22T09:20:29;97999.97;;;25.67;52.69
21096;BME280;10706;49.036;12.112;2022-07-22T09:22:55;98005.75;;;25.66;52.82
21096;BME280;10706;49.036;12.112;2022-07-22T09:25:29;98009.56;;;25.82;54.72
21096;BME280;10706;49.036;12.112;2022-07-22T09:30:48;98002.06;;;25.61;53.70
21096;BME280;10706;49.036;12.112;2022-07-22T09:33:16;98002.94;;;25.92;50.26
21096;BME280;10706;49.036;12.112;2022-07-22T09:35:43;97998.13;;;25.89;51.67
21096;BME280;10706;49.036;12.112;2022-07-22T09:38:12;97998.78;;;25.77;50.84
21096;BME280;10706;49.036;12.112;2022-07-22T09:40:46;97985.22;;;25.98;51.94
21096;BME280;10706;49.036;12.112;2022-07-22T09:43:18;97990.72;;;26.19;51.19
21096;BME280;10706;49.036;12.112;2022-07-22T09:45:56;97978.56;;;26.08;51.11
21096;BME280;10706;49.036;12.112;2022-07-22T09:48:23;97975.97;;;26.32;50.05
21096;BME280;10706;49.036;12.112;2022-07-22T09:50:50;97978.25;;;26.51;50.92
21096;BME280;10706;49.036;12.112;2022-07-22T09:53:20;97967.75;;;26.74;49.67
21096;BME280;10706;49.036;12.112;2022-07-22T09:55:47;97969.97;;;26.81;49.68
21096;BME280;10706;49.036;12.112;2022-07-22T09:58:13;97971.28;;;26.96;49.23
21096;BME280;10706;49.036;12.112;2022-07-22T10:00:41;97963.78;;;27.18;49.14
21096;BME280;10706;49.036;12.112;2022-07-22T10:03:12;97956.94;;;27.11;49.50
21096;BME280;10706;49.036;12.112;2022-07-22T10:05:40;97955.38;;;26.89;48.57
21096;BME280;10706;49.036;12.112;2022-07-22T10:08:07;97957.44;;;26.92;48.39
21096;BME280;10706;49.036;12.112;2022-07-22T10:10:36;97953.34;;;26.65;49.81
21096;BME280;10706;49.036;12.112;2022-07-22T10:13:05;97948.59;;;26.53;49.51
21096;BME280;10706;49.036;12.112;2022-07-22T10:15:33;97948.22;;;26.64;50.02
21096;BME280;10706;49.036;12.112;2022-07-22T10:18:01;97955.22;;;27.07;49.48
21096;BME280;10706;49.036;12.112;2022-07-22T10:20:30;97948.53;;;27.29;49.60
21096;BME280;10706;49.036;12.112;2022-07-22T10:23:00;97946.97;;;27.52;48.04
21096;BME280;10706;49.036;12.112;2022-07-22T10:25:32;97940.09;;;27.59;48.65
21096;BME280;10706;49.036;12.112;2022-07-22T10:28:34;97942.09;;;27.95;47.85
21096;BME280;10706;49.036;12.112;2022-07-22T10:31:23;97930.94;;;28.16;48.20
21096;BME280;10706;49.036;12.112;2022-07-22T10:33:55;97940.53;;;28.22;46.84
21096;BME280;10706;49.036;12.112;2022-07-22T10:36:34;97936.47;;;28.44;46.50
21096;BME280;10706;49.036;12.112;2022-07-22T10:39:12;97930.44;;;28.39;44.64
21096;BME280;10706;49.036;12.112;2022-07-22T10:41:44;97927.97;;;28.09;45.43
21096;BME280;10706;49.036;12.112;2022-07-22T10:44:11;97917.59;;;27.90;45.68
21096;BME280;10706;49.036;12.112;2022-07-22T10:46:49;97914.25;;;28.09;46.83
21096;BME280;10706;49.036;12.112;2022-07-22T10:49:18;97909.69;;;28.54;46.07
21096;BME280;10706;49.036;12.112;2022-07-22T10:52:11;97912.97;;;28.87;44.44
21096;BME280;10706;49.036;12.112;2022-07-22T10:55:17;97907.06;;;28.73;44.01
21096;BME280;10706;49.036;12.112;2022-07-22T10:57:43;97909.13;;;28.76;43.00
21096;BME280;10706;49.036;12.112;2022-07-22T11:00:09;97911.94;;;28.64;42.71
21096;BME280;10706;49.036;12.112;2022-07-22T11:02:37;97908.38;;;28.51;42.80
21096;BME280;10706;49.036;12.112;2022-07-22T11:05:04;97914.41;;;28.41;43.37
21096;BME280;10706;49.036;12.112;2022-07-22T11:07:30;97907.78;;;28.70;43.57
21096;BME280;10706;49.036;12.112;2022-07-22T11:10:16;97904.72;;;28.87;43.30
21096;BME280;10706;49.036;12.112;2022-07-22T11:12:43;97899.19;;;29.16;42.66
21096;BME280;10706;49.036;12.112;2022-07-22T11:15:09;97904.94;;;29.58;42.99
21096;BME280;10706;49.036;12.112;2022-07-22T11:17:36;97898.44;;;29.82;43.40
21096;BME280;10706;49.036;12.112;2022-07-22T11:20:12;97896.06;;;29.33;40.51
21096;BME280;10706;49.036;12.112;2022-07-22T11:22:39;97889.72;;;29.13;41.51
21096;BME280;10706;49.036;12.112;2022-07-22T11:25:08;97887.31;;;29.43;42.78
21096;BME280;10706;49.036;12.112;2022-07-22T11:27:34;97886.28;;;29.68;41.98
21096;BME280;10706;49.036;12.112;2022-07-22T11:30:00;97876.78;;;29.81;40.73
21096;BME280;10706;49.036;12.112;2022-07-22T11:32:29;97880.22;;;30.13;39.20
21096;BME280;10706;49.036;12.112;2022-07-22T11:34:59;97876.75;;;30.16;39.41
21096;BME280;10706;49.036;12.112;2022-07-22T11:37:28;97876.69;;;30.13;40.26
21096;BME280;10706;49.036;12.112;2022-07-22T11:40:05;97866.31;;;30.26;38.39
21096;BME280;10706;49.036;12.112;2022-07-22T11:42:32;97865.94;;;30.27;38.33
21096;BME280;10706;49.036;12.112;2022-07-22T11:44:58;97859.34;;;30.12;38.12
21096;BME280;10706;49.036;12.112;2022-07-22T11:47:25;97859.09;;;30.37;39.50
21096;BME280;10706;49.036;12.112;2022-07-22T11:49:51;97851.66;;;30.21;38.45
21096;BME280;10706;49.036;12.112;2022-07-22T11:52:17;97848.69;;;30.11;38.44
21096;BME280;10706;49.036;12.112;2022-07-22T11:54:46;97842.22;;;29.83;39.44
21096;BME280;10706;49.036;12.112;2022-07-22T11:57:15;97842.47;;;30.14;37.96
21096;BME280;10706;49.036;12.112;2022-07-22T11:59:41;97845.50;;;30.09;37.81
21096;BME280;10706;49.036;12.112;2022-07-22T12:02:07;97841.28;;;31.43;37.47
21096;BME280;10706;49.036;12.112;2022-07-22T12:04:35;97836.41;;;32.16;35.05
21096;BME280;10706;49.036;12.112;2022-07-22T12:07:02;97834.44;;;33.99;32.65
21096;BME280;10706;49.036;12.112;2022-07-22T12:09:34;97827.63;;;35.70;30.27
21096;BME280;10706;49.036;12.112;2022-07-22T12:12:00;97825.13;;;35.94;30.12
21096;BME280;10706;49.036;12.112;2022-07-22T12:14:29;97817.16;;;36.81;28.25
21096;BME280;10706;49.036;12.112;2022-07-22T12:17:08;97820.88;;;35.17;28.38
21096;BME280;10706;49.036;12.112;2022-07-22T12:19:37;97824.38;;;35.83;27.55
21096;BME280;10706;49.036;12.112;2022-07-22T12:24:40;97809.75;;;36.56;27.01
21096;BME280;10706;49.036;12.112;2022-07-22T12:27:13;97813.31;;;34.85;29.13
21096;BME280;10706;49.036;12.112;2022-07-22T12:40:03;97796.63;;;37.58;27.34
21096;BME280;10706;49.036;12.112;2022-07-22T12:42:38;97795.72;;;37.71;26.03
21096;BME280;10706;49.036;12.112;2022-07-22T12:45:08;97792.91;;;37.71;26.77
21096;BME280;10706;49.036;12.112;2022-07-22T12:47:55;97788.75;;;38.48;24.90
21096;BME280;10706;49.036;12.112;2022-07-22T12:50:43;97790.13;;;39.38;24.48
21096;BME280;10706;49.036;12.112;2022-07-22T12:53:12;97780.66;;;39.96;23.52
21096;BME280;10706;49.036;12.112;2022-07-22T12:55:58;97783.50;;;34.28;29.24
21096;BME280;10706;49.036;12.112;2022-07-22T12:58:28;97783.53;;;32.96;31.82
21096;BME280;10706;49.036;12.112;2022-07-22T13:00:59;97776.06;;;35.15;29.94
21096;BME280;10706;49.036;12.112;2022-07-22T13:03:26;97782.03;;;35.21;29.15
21096;BME280;10706;49.036;12.112;2022-07-22T13:05:58;97774.44;;;36.53;28.27
21096;BME280;10706;49.036;12.112;2022-07-22T13:08:25;97770.78;;;37.15;26.14